sensor_id;sensor_type;location;lat;lon;timestamp;P1;durP1;ratioP1;P2;durP2;ratioP2
2061;SDS011;11070;51.336;12.340;2023-11-19T00:00:30;6.27;;;5.67;;
2061;SDS011;11070;51.336;12.340;2023-11-19T00:02:56;6.47;;;5.60;;
2061;SDS011;11070;51.336;12.340;2023-11-19T00:05:22;6.87;;;5.40;;
2061;SDS011;11070;51.336;12.340;2023-11-19T00:07:47;6.50;;;5.50;;
2061;SDS011;11070;51.336;12.340;2023-11-19T00:10:13;6.10;;;5.50;;
2061;SDS011;11070;51.336;12.340;2023-11-19T00:12:44;6.03;;;5.45;;
2061;SDS011;11070;51.336;12.340;2023-11-19T00:15:11;6.28;;;5.53;;
2061;SDS011;11070;51.336;12.340;2023-11-19T00:17:38;5.60;;;4.95;;
2061;SDS011;11070;51.336;12.340;2023-11-19T00:20:11;7.13;;;6.20;;
2061;SDS011;11070;51.336;12.340;2023-11-19T00:22:38;5.38;;;4.88;;
2061;SDS011;11070;51.336;12.340;2023-11-19T00:25:04;5.37;;;4.80;;
2061;SDS011;11070;51.336;12.340;2023-11-19T00:27:31;7.18;;;4.95;;
2061;SDS011;11070;51.336;12.340;2023-11-19T00:29:56;6.60;;;5.97;;
2061;SDS011;11070;51.336;12.340;2023-11-19T00:32:22;6.67;;;5.20;;
2061;SDS011;11070;51.336;12.340;2023-11-19T00:34:48;5.43;;;4.80;;
2061;SDS011;11070;51.336;12.340;2023-11-19T00:37:14;5.80;;;5.20;;
2061;SDS011;11070;51.336;12.340;2023-11-19T00:39:40;6.55;;;4.70;;
2061;SDS011;11070;51.336;12.340;2023-11-19T00:42:06;4.70;;;4.13;;
2061;SDS011;11070;51.336;12.340;2023-11-19T00:44:32;4.80;;;4.17;;
2061;SDS011;11070;51.336;12.340;2023-11-19T00:46:58;5.17;;;4.00;;
2061;SDS011;11070;51.336;12.340;2023-11-19T00:49:25;3.70;;;3.35;;
2061;SDS011;11070;51.336;12.340;2023-11-19T00:51:51;3.60;;;3.30;;
2061;SDS011;11070;51.336;12.340;2023-11-19T00:54:16;3.87;;;3.50;;
2061;SDS011;11070;51.336;12.340;2023-11-19T00:56:42;3.70;;;3.40;;
2061;SDS011;11070;51.336;12.340;2023-11-19T00:59:08;3.73;;;3.33;;
2061;SDS011;11070;51.336;12.340;2023-11-19T01:01:33;3.70;;;3.37;;
2061;SDS011;11070;51.336;12.340;2023-11-19T01:03:59;3.87;;;3.57;;
2061;SDS011;11070;51.336;12.340;2023-11-19T01:06:28;3.20;;;3.00;;
2061;SDS011;11070;51.336;12.340;2023-11-19T01:08:55;2.92;;;2.72;;
2061;SDS011;11070;51.336;12.340;2023-11-19T01:11:24;3.15;;;2.95;;
2061;SDS011;11070;51.336;12.340;2023-11-19T01:13:51;3.50;;;3.20;;
2061;SDS011;11070;51.336;12.340;2023-11-19T01:16:17;2.92;;;2.72;;
2061;SDS011;11070;51.336;12.340;2023-11-19T01:18:44;2.85;;;2.65;;
2061;SDS011;11070;51.336;12.340;2023-11-19T01:21:11;3.00;;;2.80;;
2061;SDS011;11070;51.336;12.340;2023-11-19T01:23:37;3.47;;;3.17;;
2061;SDS011;11070;51.336;12.340;2023-11-19T01:26:03;3.07;;;2.87;;
2061;SDS011;11070;51.336;12.340;2023-11-19T01:28:30;2.90;;;2.70;;
2061;SDS011;11070;51.336;12.340;2023-11-19T01:30:56;3.43;;;3.10;;
2061;SDS011;11070;51.336;12.340;2023-11-19T01:33:21;2.53;;;2.33;;
2061;SDS011;11070;51.336;12.340;2023-11-19T01:35:47;2.43;;;2.33;;
2061;SDS011;11070;51.336;12.340;2023-11-19T01:38:13;3.20;;;2.50;;
2061;SDS011;11070;51.336;12.340;2023-11-19T01:40:39;3.42;;;3.15;;
2061;SDS011;11070;51.336;12.340;2023-11-19T01:43:05;2.77;;;2.57;;
2061;SDS011;11070;51.336;12.340;2023-11-19T01:45:31;2.90;;;2.70;;
2061;SDS011;11070;51.336;12.340;2023-11-19T01:47:58;2.70;;;2.50;;
2061;SDS011;11070;51.336;12.340;2023-11-19T01:50:27;2.75;;;2.55;;
2061;SDS011;11070;51.336;12.340;2023-11-19T01:52:53;3.53;;;3.22;;
2061;SDS011;11070;51.336;12.340;2023-11-19T01:55:20;6.78;;;2.92;;
2061;SDS011;11070;51.336;12.340;2023-11-19T01:57:47;3.38;;;3.08;;
2061;SDS011;11070;51.336;12.340;2023-11-19T02:00:14;3.03;;;2.83;;
2061;SDS011;11070;51.336;12.340;2023-11-19T02:02:41;3.35;;;3.05;;
2061;SDS011;11070;51.336;12.340;2023-11-19T02:05:08;3.08;;;2.88;;
2061;SDS011;11070;51.336;12.340;2023-11-19T02:07:35;2.72;;;2.53;;
2061;SDS011;11070;51.336;12.340;2023-11-19T02:10:00;5.10;;;3.10;;
2061;SDS011;11070;51.336;12.340;2023-11-19T02:12:27;3.20;;;2.97;;
2061;SDS011;11070;51.336;12.340;2023-11-19T02:14:53;3.45;;;3.10;;
2061;SDS011;11070;51.336;12.340;2023-11-19T02:17:26;4.80;;;3.13;;
2061;SDS011;11070;51.336;12.340;2023-11-19T02:19:59;3.00;;;2.80;;
2061;SDS011;11070;51.336;12.340;2023-11-19T02:22:25;4.00;;;3.70;;
2061;SDS011;11070;51.336;12.340;2023-11-19T02:24:51;3.40;;;3.10;;
2061;SDS011;11070;51.336;12.340;2023-11-19T02:27:31;3.67;;;3.17;;
2061;SDS011;11070;51.336;12.340;2023-11-19T02:30:16;5.05;;;4.00;;
2061;SDS011;11070;51.336;12.340;2023-11-19T02:32:42;4.20;;;3.80;;
2061;SDS011;11070;51.336;12.340;2023-11-19T02:35:07;3.57;;;3.27;;
2061;SDS011;11070;51.336;12.340;2023-11-19T02:37:37;5.77;;;3.77;;
2061;SDS011;11070;51.336;12.340;2023-11-19T02:40:04;4.00;;;3.67;;
2061;SDS011;11070;51.336;12.340;2023-11-19T02:42:33;4.32;;;4.03;;
2061;SDS011;11070;51.336;12.340;2023-11-19T02:44:59;4.00;;;3.70;;
2061;SDS011;11070;51.336;12.340;2023-11-19T02:47:25;4.17;;;3.60;;
2061;SDS011;11070;51.336;12.340;2023-11-19T02:49:50;5.30;;;3.60;;
2061;SDS011;11070;51.336;12.340;2023-11-19T02:52:18;3.85;;;3.50;;
2061;SDS011;11070;51.336;12.340;2023-11-19T02:54:44;4.97;;;3.83;;
2061;SDS011;11070;51.336;12.340;2023-11-19T02:57:10;4.10;;;3.60;;
2061;SDS011;11070;51.336;12.340;2023-11-19T02:59:38;3.90;;;3.60;;
2061;SDS011;11070;51.336;12.340;2023-11-19T03:02:06;4.30;;;4.00;;
2061;SDS011;11070;51.336;12.340;2023-11-19T03:04:36;3.90;;;3.60;;
2061;SDS011;11070;51.336;12.340;2023-11-19T03:07:05;3.88;;;3.58;;
2061;SDS011;11070;51.336;12.340;2023-11-19T03:09:34;3.55;;;3.30;;
2061;SDS011;11070;51.336;12.340;2023-11-19T03:12:00;3.37;;;3.10;;
2061;SDS011;11070;51.336;12.340;2023-11-19T03:14:27;3.50;;;3.28;;
2061;SDS011;11070;51.336;12.340;2023-11-19T03:16:52;3.53;;;3.30;;
2061;SDS011;11070;51.336;12.340;2023-11-19T03:19:18;3.65;;;3.35;;
2061;SDS011;11070;51.336;12.340;2023-11-19T03:21:44;3.47;;;3.27;;
2061;SDS011;11070;51.336;12.340;2023-11-19T03:24:10;3.40;;;3.13;;
2061;SDS011;11070;51.336;12.340;2023-11-19T03:26:39;3.17;;;2.95;;
2061;SDS011;11070;51.336;12.340;2023-11-19T03:29:05;3.23;;;3.03;;
2061;SDS011;11070;51.336;12.340;2023-11-19T03:31:30;3.10;;;2.90;;
2061;SDS011;11070;51.336;12.340;2023-11-19T03:33:56;2.90;;;2.70;;
2061;SDS011;11070;51.336;12.340;2023-11-19T03:36:22;2.80;;;2.60;;
2061;SDS011;11070;51.336;12.340;2023-11-19T03:38:47;2.80;;;2.60;;
2061;SDS011;11070;51.336;12.340;2023-11-19T03:41:15;2.97;;;2.77;;
2061;SDS011;11070;51.336;12.340;2023-11-19T03:43:42;3.03;;;2.83;;
2061;SDS011;11070;51.336;12.340;2023-11-19T03:46:20;2.77;;;2.57;;
2061;SDS011;11070;51.336;12.340;2023-11-19T03:48:47;3.20;;;2.95;;
2061;SDS011;11070;51.336;12.340;2023-11-19T03:51:14;3.58;;;3.28;;
2061;SDS011;11070;51.336;12.340;2023-11-19T03:53:42;3.47;;;3.17;;
2061;SDS011;11070;51.336;12.340;2023-11-19T03:56:08;3.80;;;3.45;;
2061;SDS011;11070;51.336;12.340;2023-11-19T03:58:37;4.20;;;3.83;;
2061;SDS011;11070;51.336;12.340;2023-11-19T04:01:04;3.17;;;2.97;;
2061;SDS011;11070;51.336;12.340;2023-11-19T04:03:30;4.05;;;3.75;;
2061;SDS011;11070;51.336;12.340;2023-11-19T04:05:56;3.30;;;3.00;;
2061;SDS011;11070;51.336;12.340;2023-11-19T04:08:22;3.67;;;3.30;;
2061;SDS011;11070;51.336;12.340;2023-11-19T04:10:47;3.00;;;2.80;;
2061;SDS011;11070;51.336;12.340;2023-11-19T04:13:14;2.90;;;2.70;;
2061;SDS011;11070;51.336;12.340;2023-11-19T04:15:39;3.80;;;3.20;;
2061;SDS011;11070;51.336;12.340;2023-11-19T04:18:05;2.77;;;2.57;;
2061;SDS011;11070;51.336;12.340;2023-11-19T04:20:31;2.73;;;2.53;;
2061;SDS011;11070;51.336;12.340;2023-11-19T04:22:56;2.23;;;2.10;;
2061;SDS011;11070;51.336;12.340;2023-11-19T04:25:22;4.03;;;2.50;;
2061;SDS011;11070;51.336;12.340;2023-11-19T04:27:51;2.00;;;1.90;;
2061;SDS011;11070;51.336;12.340;2023-11-19T04:30:16;2.10;;;2.00;;
2061;SDS011;11070;51.336;12.340;2023-11-19T04:32:43;1.98;;;1.88;;
2061;SDS011;11070;51.336;12.340;2023-11-19T04:35:09;2.50;;;2.25;;
2061;SDS011;11070;51.336;12.340;2023-11-19T04:37:35;2.30;;;2.10;;
2061;SDS011;11070;51.336;12.340;2023-11-19T04:40:02;2.10;;;2.00;;
2061;SDS011;11070;51.336;12.340;2023-11-19T04:42:28;2.00;;;1.90;;
2061;SDS011;11070;51.336;12.340;2023-11-19T04:44:54;1.80;;;1.70;;
2061;SDS011;11070;51.336;12.340;2023-11-19T04:47:20;4.00;;;2.20;;
2061;SDS011;11070;51.336;12.340;2023-11-19T04:49:46;2.03;;;1.92;;
2061;SDS011;11070;51.336;12.340;2023-11-19T04:52:12;1.80;;;1.70;;
2061;SDS011;11070;51.336;12.340;2023-11-19T04:54:43;1.67;;;1.57;;
2061;SDS011;11070;51.336;12.340;2023-11-19T04:57:09;2.00;;;1.90;;
2061;SDS011;11070;51.336;12.340;2023-11-19T04:59:36;1.65;;;1.50;;
2061;SDS011;11070;51.336;12.340;2023-11-19T05:02:02;1.77;;;1.67;;
2061;SDS011;11070;51.336;12.340;2023-11-19T05:04:29;2.00;;;1.85;;
2061;SDS011;11070;51.336;12.340;2023-11-19T05:06:54;2.50;;;2.30;;
2061;SDS011;11070;51.336;12.340;2023-11-19T05:09:20;1.60;;;1.50;;
2061;SDS011;11070;51.336;12.340;2023-11-19T05:11:46;2.23;;;1.80;;
2061;SDS011;11070;51.336;12.340;2023-11-19T05:14:12;1.50;;;1.40;;
2061;SDS011;11070;51.336;12.340;2023-11-19T05:16:40;1.40;;;1.30;;
2061;SDS011;11070;51.336;12.340;2023-11-19T05:19:07;1.77;;;1.42;;
2061;SDS011;11070;51.336;12.340;2023-11-19T05:21:34;1.80;;;1.70;;
2061;SDS011;11070;51.336;12.340;2023-11-19T05:24:01;3.75;;;1.85;;
2061;SDS011;11070;51.336;12.340;2023-11-19T05:26:29;2.00;;;1.60;;
2061;SDS011;11070;51.336;12.340;2023-11-19T05:28:55;1.80;;;1.58;;
2061;SDS011;11070;51.336;12.340;2023-11-19T05:31:21;1.77;;;1.67;;
2061;SDS011;11070;51.336;12.340;2023-11-19T05:33:47;1.77;;;1.67;;
2061;SDS011;11070;51.336;12.340;2023-11-19T05:36:12;2.00;;;1.70;;
2061;SDS011;11070;51.336;12.340;2023-11-19T05:38:39;2.00;;;1.90;;
2061;SDS011;11070;51.336;12.340;2023-11-19T05:41:04;2.40;;;1.52;;
2061;SDS011;11070;51.336;12.340;2023-11-19T05:43:30;1.77;;;1.47;;
2061;SDS011;11070;51.336;12.340;2023-11-19T05:45:56;1.60;;;1.50;;
2061;SDS011;11070;51.336;12.340;2023-11-19T05:48:22;1.30;;;1.20;;
2061;SDS011;11070;51.336;12.340;2023-11-19T05:50:49;1.25;;;1.15;;
2061;SDS011;11070;51.336;12.340;2023-11-19T05:53:15;1.60;;;1.50;;
2061;SDS011;11070;51.336;12.340;2023-11-19T05:55:41;1.10;;;1.00;;
2061;SDS011;11070;51.336;12.340;2023-11-19T05:58:25;1.30;;;1.20;;
2061;SDS011;11070;51.336;12.340;2023-11-19T06:00:53;1.15;;;1.05;;
2061;SDS011;11070;51.336;12.340;2023-11-19T06:03:22;1.10;;;1.00;;
2061;SDS011;11070;51.336;12.340;2023-11-19T06:05:48;1.10;;;1.00;;
2061;SDS011;11070;51.336;12.340;2023-11-19T06:08:14;2.30;;;0.82;;
2061;SDS011;11070;51.336;12.340;2023-11-19T06:10:43;1.30;;;1.00;;
2061;SDS011;11070;51.336;12.340;2023-11-19T06:13:11;2.00;;;0.82;;
2061;SDS011;11070;51.336;12.340;2023-11-19T06:15:42;1.15;;;1.05;;
2061;SDS011;11070;51.336;12.340;2023-11-19T06:18:08;1.33;;;1.10;;
2061;SDS011;11070;51.336;12.340;2023-11-19T06:20:36;1.80;;;0.93;;
2061;SDS011;11070;51.336;12.340;2023-11-19T06:23:02;1.10;;;1.00;;
2061;SDS011;11070;51.336;12.340;2023-11-19T06:25:28;1.63;;;1.00;;
2061;SDS011;11070;51.336;12.340;2023-11-19T06:27:53;1.10;;;0.90;;
2061;SDS011;11070;51.336;12.340;2023-11-19T06:30:19;1.43;;;1.33;;
2061;SDS011;11070;51.336;12.340;2023-11-19T06:32:45;1.30;;;1.20;;
2061;SDS011;11070;51.336;12.340;2023-11-19T06:35:12;3.85;;;1.20;;
2061;SDS011;11070;51.336;12.340;2023-11-19T06:37:39;1.20;;;1.10;;
2061;SDS011;11070;51.336;12.340;2023-11-19T06:40:05;1.30;;;1.20;;
2061;SDS011;11070;51.336;12.340;2023-11-19T06:42:31;1.25;;;1.15;;
2061;SDS011;11070;51.336;12.340;2023-11-19T06:44:57;3.05;;;1.13;;
2061;SDS011;11070;51.336;12.340;2023-11-19T06:47:26;1.20;;;1.10;;
2061;SDS011;11070;51.336;12.340;2023-11-19T06:49:53;1.02;;;0.93;;
2061;SDS011;11070;51.336;12.340;2023-11-19T06:52:19;1.42;;;1.33;;
2061;SDS011;11070;51.336;12.340;2023-11-19T06:54:44;0.87;;;0.77;;
2061;SDS011;11070;51.336;12.340;2023-11-19T06:57:13;1.00;;;0.90;;
2061;SDS011;11070;51.336;12.340;2023-11-19T06:59:38;1.17;;;1.07;;
2061;SDS011;11070;51.336;12.340;2023-11-19T07:02:05;1.47;;;1.20;;
2061;SDS011;11070;51.336;12.340;2023-11-19T07:04:31;1.45;;;1.27;;
2061;SDS011;11070;51.336;12.340;2023-11-19T07:06:58;1.40;;;1.10;;
2061;SDS011;11070;51.336;12.340;2023-11-19T07:09:25;1.30;;;1.20;;
2061;SDS011;11070;51.336;12.340;2023-11-19T07:11:50;1.85;;;1.10;;
2061;SDS011;11070;51.336;12.340;2023-11-19T07:14:17;1.27;;;1.05;;
2061;SDS011;11070;51.336;12.340;2023-11-19T07:16:43;1.50;;;1.40;;
2061;SDS011;11070;51.336;12.340;2023-11-19T07:19:10;1.38;;;1.25;;
2061;SDS011;11070;51.336;12.340;2023-11-19T07:21:36;1.30;;;1.20;;
2061;SDS011;11070;51.336;12.340;2023-11-19T07:24:09;1.40;;;1.30;;
2061;SDS011;11070;51.336;12.340;2023-11-19T07:26:36;2.30;;;1.33;;
2061;SDS011;11070;51.336;12.340;2023-11-19T07:29:05;1.50;;;1.40;;
2061;SDS011;11070;51.336;12.340;2023-11-19T07:31:32;1.60;;;1.50;;
2061;SDS011;11070;51.336;12.340;2023-11-19T07:33:58;1.60;;;1.50;;
2061;SDS011;11070;51.336;12.340;2023-11-19T07:36:23;2.23;;;2.03;;
2061;SDS011;11070;51.336;12.340;2023-11-19T07:38:49;1.97;;;1.60;;
2061;SDS011;11070;51.336;12.340;2023-11-19T07:41:15;1.60;;;1.50;;
2061;SDS011;11070;51.336;12.340;2023-11-19T07:43:43;2.23;;;1.60;;
2061;SDS011;11070;51.336;12.340;2023-11-19T07:46:12;1.65;;;1.55;;
2061;SDS011;11070;51.336;12.340;2023-11-19T07:48:39;1.35;;;1.25;;
2061;SDS011;11070;51.336;12.340;2023-11-19T07:51:05;1.40;;;1.30;;
2061;SDS011;11070;51.336;12.340;2023-11-19T07:53:31;1.67;;;1.58;;
2061;SDS011;11070;51.336;12.340;2023-11-19T07:56:00;1.65;;;1.55;;
2061;SDS011;11070;51.336;12.340;2023-11-19T07:58:26;2.25;;;2.05;;
2061;SDS011;11070;51.336;12.340;2023-11-19T08:00:52;1.87;;;1.77;;
2061;SDS011;11070;51.336;12.340;2023-11-19T08:03:17;1.47;;;1.37;;
2061;SDS011;11070;51.336;12.340;2023-11-19T08:05:49;1.73;;;1.63;;
2061;SDS011;11070;51.336;12.340;2023-11-19T08:08:14;1.70;;;1.60;;
2061;SDS011;11070;51.336;12.340;2023-11-19T08:10:40;1.60;;;1.50;;
2061;SDS011;11070;51.336;12.340;2023-11-19T08:13:06;2.05;;;1.55;;
2061;SDS011;11070;51.336;12.340;2023-11-19T08:15:32;2.10;;;1.40;;
2061;SDS011;11070;51.336;12.340;2023-11-19T08:17:58;1.93;;;1.43;;
2061;SDS011;11070;51.336;12.340;2023-11-19T08:20:24;1.60;;;1.50;;
2061;SDS011;11070;51.336;12.340;2023-11-19T08:22:50;2.43;;;2.03;;
2061;SDS011;11070;51.336;12.340;2023-11-19T08:25:15;2.13;;;1.63;;
2061;SDS011;11070;51.336;12.340;2023-11-19T08:27:41;1.77;;;1.53;;
2061;SDS011;11070;51.336;12.340;2023-11-19T08:30:08;1.77;;;1.67;;
2061;SDS011;11070;51.336;12.340;2023-11-19T08:32:34;2.80;;;1.70;;
2061;SDS011;11070;51.336;12.340;2023-11-19T08:35:00;1.80;;;1.70;;
2061;SDS011;11070;51.336;12.340;2023-11-19T08:37:26;3.23;;;2.70;;
2061;SDS011;11070;51.336;12.340;2023-11-19T08:39:52;9.07;;;5.17;;
2061;SDS011;11070;51.336;12.340;2023-11-19T08:42:18;2.77;;;2.10;;
2061;SDS011;11070;51.336;12.340;2023-11-19T08:44:43;2.30;;;2.10;;
2061;SDS011;11070;51.336;12.340;2023-11-19T08:47:15;2.08;;;1.88;;
2061;SDS011;11070;51.336;12.340;2023-11-19T08:49:44;1.80;;;1.70;;
2061;SDS011;11070;51.336;12.340;2023-11-19T08:52:10;6.07;;;4.70;;
2061;SDS011;11070;51.336;12.340;2023-11-19T08:54:36;3.17;;;2.83;;
2061;SDS011;11070;51.336;12.340;2023-11-19T08:57:02;3.60;;;2.10;;
2061;SDS011;11070;51.336;12.340;2023-11-19T08:59:31;2.80;;;1.90;;
2061;SDS011;11070;51.336;12.340;2023-11-19T09:01:57;2.65;;;1.65;;
2061;SDS011;11070;51.336;12.340;2023-11-19T09:04:23;2.00;;;1.87;;
2061;SDS011;11070;51.336;12.340;2023-11-19T09:06:49;1.83;;;1.73;;
2061;SDS011;11070;51.336;12.340;2023-11-19T09:09:14;1.97;;;1.43;;
2061;SDS011;11070;51.336;12.340;2023-11-19T09:11:40;1.97;;;1.87;;
2061;SDS011;11070;51.336;12.340;2023-11-19T09:14:06;1.45;;;1.35;;
2061;SDS011;11070;51.336;12.340;2023-11-19T09:16:34;2.55;;;2.00;;
2061;SDS011;11070;51.336;12.340;2023-11-19T09:19:00;1.90;;;1.30;;
2061;SDS011;11070;51.336;12.340;2023-11-19T09:21:27;2.17;;;1.80;;
2061;SDS011;11070;51.336;12.340;2023-11-19T09:23:54;2.70;;;1.75;;
2061;SDS011;11070;51.336;12.340;2023-11-19T09:26:23;2.55;;;2.35;;
2061;SDS011;11070;51.336;12.340;2023-11-19T09:28:48;2.20;;;2.00;;
2061;SDS011;11070;51.336;12.340;2023-11-19T09:31:14;2.80;;;2.53;;
2061;SDS011;11070;51.336;12.340;2023-11-19T09:33:40;1.90;;;1.80;;
2061;SDS011;11070;51.336;12.340;2023-11-19T09:36:06;3.43;;;2.13;;
2061;SDS011;11070;51.336;12.340;2023-11-19T09:38:32;3.83;;;2.00;;
2061;SDS011;11070;51.336;12.340;2023-11-19T09:41:00;3.03;;;2.70;;
2061;SDS011;11070;51.336;12.340;2023-11-19T09:43:27;2.65;;;2.00;;
2061;SDS011;11070;51.336;12.340;2023-11-19T09:45:53;3.65;;;2.33;;
2061;SDS011;11070;51.336;12.340;2023-11-19T09:48:21;3.75;;;2.95;;
2061;SDS011;11070;51.336;12.340;2023-11-19T09:50:49;2.33;;;2.10;;
2061;SDS011;11070;51.336;12.340;2023-11-19T09:53:16;3.17;;;2.90;;
2061;SDS011;11070;51.336;12.340;2023-11-19T09:55:43;3.53;;;3.00;;
2061;SDS011;11070;51.336;12.340;2023-11-19T09:58:10;2.50;;;2.30;;
2061;SDS011;11070;51.336;12.340;2023-11-19T10:00:38;4.20;;;2.10;;
2061;SDS011;11070;51.336;12.340;2023-11-19T10:03:04;2.45;;;1.90;;
2061;SDS011;11070;51.336;12.340;2023-11-19T10:05:32;2.88;;;2.42;;
2061;SDS011;11070;51.336;12.340;2023-11-19T10:07:58;2.53;;;1.80;;
2061;SDS011;11070;51.336;12.340;2023-11-19T10:10:24;2.97;;;2.00;;
2061;SDS011;11070;51.336;12.340;2023-11-19T10:12:52;6.13;;;2.50;;
2061;SDS011;11070;51.336;12.340;2023-11-19T10:15:21;5.00;;;3.00;;
2061;SDS011;11070;51.336;12.340;2023-11-19T10:17:51;2.97;;;2.78;;
2061;SDS011;11070;51.336;12.340;2023-11-19T10:20:23;2.80;;;2.60;;
2061;SDS011;11070;51.336;12.340;2023-11-19T10:22:52;6.43;;;4.73;;
2061;SDS011;11070;51.336;12.340;2023-11-19T10:27:51;3.38;;;2.60;;
2061;SDS011;11070;51.336;12.340;2023-11-19T10:30:19;3.50;;;2.55;;
2061;SDS011;11070;51.336;12.340;2023-11-19T10:35:53;2.72;;;2.53;;
2061;SDS011;11070;51.336;12.340;2023-11-19T10:38:21;3.17;;;2.95;;
2061;SDS011;11070;51.336;12.340;2023-11-19T10:40:48;5.47;;;2.65;;
2061;SDS011;11070;51.336;12.340;2023-11-19T10:43:15;3.47;;;2.50;;
2061;SDS011;11070;51.336;12.340;2023-11-19T10:45:44;5.68;;;2.90;;
2061;SDS011;11070;51.336;12.340;2023-11-19T10:48:10;2.70;;;2.37;;
2061;SDS011;11070;51.336;12.340;2023-11-19T10:50:38;3.97;;;2.15;;
2061;SDS011;11070;51.336;12.340;2023-11-19T10:53:05;4.55;;;2.60;;
2061;SDS011;11070;51.336;12.340;2023-11-19T10:55:34;2.50;;;2.17;;
2061;SDS011;11070;51.336;12.340;2023-11-19T10:58:01;4.20;;;2.75;;
2061;SDS011;11070;51.336;12.340;2023-11-19T11:00:44;2.20;;;1.83;;
2061;SDS011;11070;51.336;12.340;2023-11-19T11:03:19;2.10;;;1.30;;
2061;SDS011;11070;51.336;12.340;2023-11-19T11:05:49;2.78;;;1.55;;
2061;SDS011;11070;51.336;12.340;2023-11-19T11:08:16;2.35;;;1.70;;
2061;SDS011;11070;51.336;12.340;2023-11-19T11:10:43;5.45;;;1.73;;
2061;SDS011;11070;51.336;12.340;2023-11-19T11:13:16;2.08;;;1.50;;
2061;SDS011;11070;51.336;12.340;2023-11-19T11:15:42;3.97;;;2.35;;
2061;SDS011;11070;51.336;12.340;2023-11-19T11:18:09;4.30;;;1.70;;
2061;SDS011;11070;51.336;12.340;2023-11-19T11:20:34;4.15;;;2.10;;
2061;SDS011;11070;51.336;12.340;2023-11-19T11:39:39;5.45;;;2.63;;
2061;SDS011;11070;51.336;12.340;2023-11-19T11:55:24;5.67;;;2.87;;
2061;SDS011;11070;51.336;12.340;2023-11-19T11:57:50;3.90;;;2.57;;
2061;SDS011;11070;51.336;12.340;2023-11-19T12:00:26;5.03;;;2.60;;
2061;SDS011;11070;51.336;12.340;2023-11-19T12:02:56;5.30;;;2.83;;
2061;SDS011;11070;51.336;12.340;2023-11-19T12:05:24;3.20;;;2.00;;
2061;SDS011;11070;51.336;12.340;2023-11-19T12:07:56;5.73;;;2.23;;
2061;SDS011;11070;51.336;12.340;2023-11-19T12:10:25;3.67;;;2.10;;
2061;SDS011;11070;51.336;12.340;2023-11-19T12:12:58;3.90;;;2.17;;
2061;SDS011;11070;51.336;12.340;2023-11-19T12:15:24;4.87;;;2.40;;
2061;SDS011;11070;51.336;12.340;2023-11-19T12:17:52;4.43;;;2.83;;
2061;SDS011;11070;51.336;12.340;2023-11-19T12:20:22;7.00;;;2.83;;
2061;SDS011;11070;51.336;12.340;2023-11-19T12:22:49;6.30;;;2.73;;
2061;SDS011;11070;51.336;12.340;2023-11-19T12:25:16;4.57;;;2.40;;
2061;SDS011;11070;51.336;12.340;2023-11-19T12:27:44;4.53;;;2.33;;
2061;SDS011;11070;51.336;12.340;2023-11-19T12:30:26;4.77;;;2.60;;
2061;SDS011;11070;51.336;12.340;2023-11-19T12:32:54;5.20;;;2.40;;
2061;SDS011;11070;51.336;12.340;2023-11-19T12:35:20;8.63;;;2.90;;
2061;SDS011;11070;51.336;12.340;2023-11-19T12:37:46;6.83;;;3.00;;
2061;SDS011;11070;51.336;12.340;2023-11-19T12:40:19;9.00;;;3.17;;
2061;SDS011;11070;51.336;12.340;2023-11-19T12:42:49;6.10;;;2.77;;
2061;SDS011;11070;51.336;12.340;2023-11-19T12:45:22;8.40;;;2.90;;
2061;SDS011;11070;51.336;12.340;2023-11-19T12:48:09;7.30;;;2.75;;
2061;SDS011;11070;51.336;12.340;2023-11-19T12:53:26;5.82;;;2.40;;
2061;SDS011;11070;51.336;12.340;2023-11-19T12:55:55;10.18;;;3.55;;
2061;SDS011;11070;51.336;12.340;2023-11-19T12:58:32;9.13;;;3.40;;
2061;SDS011;11070;51.336;12.340;2023-11-19T13:01:04;5.93;;;2.50;;
2061;SDS011;11070;51.336;12.340;2023-11-19T13:03:38;9.02;;;2.92;;
2061;SDS011;11070;51.336;12.340;2023-11-19T13:06:10;8.82;;;3.22;;
2061;SDS011;11070;51.336;12.340;2023-11-19T13:08:44;11.10;;;3.40;;
2061;SDS011;11070;51.336;12.340;2023-11-19T13:11:32;11.18;;;3.33;;
2061;SDS011;11070;51.336;12.340;2023-11-19T13:14:05;8.30;;;3.25;;
2061;SDS011;11070;51.336;12.340;2023-11-19T13:16:37;9.40;;;3.22;;
2061;SDS011;11070;51.336;12.340;2023-11-19T13:19:03;11.75;;;3.30;;
2061;SDS011;11070;51.336;12.340;2023-11-19T13:21:30;9.80;;;3.20;;
2061;SDS011;11070;51.336;12.340;2023-11-19T13:23:56;6.30;;;2.55;;
2061;SDS011;11070;51.336;12.340;2023-11-19T13:26:22;6.73;;;3.10;;
2061;SDS011;11070;51.336;12.340;2023-11-19T13:28:48;5.03;;;2.70;;
2061;SDS011;11070;51.336;12.340;2023-11-19T13:31:14;6.50;;;2.83;;
2061;SDS011;11070;51.336;12.340;2023-11-19T13:33:40;6.03;;;2.67;;
2061;SDS011;11070;51.336;12.340;2023-11-19T13:36:06;8.02;;;2.75;;
2061;SDS011;11070;51.336;12.340;2023-11-19T13:38:36;5.18;;;2.72;;
2061;SDS011;11070;51.336;12.340;2023-11-19T13:41:05;9.95;;;2.95;;
2061;SDS011;11070;51.336;12.340;2023-11-19T13:43:31;14.27;;;3.20;;
2061;SDS011;11070;51.336;12.340;2023-11-19T13:45:57;7.93;;;3.10;;
2061;SDS011;11070;51.336;12.340;2023-11-19T13:48:23;10.07;;;3.13;;
2061;SDS011;11070;51.336;12.340;2023-11-19T13:50:49;7.57;;;2.80;;
2061;SDS011;11070;51.336;12.340;2023-11-19T13:53:15;7.40;;;2.63;;
2061;SDS011;11070;51.336;12.340;2023-11-19T13:55:41;10.03;;;3.07;;
2061;SDS011;11070;51.336;12.340;2023-11-19T13:58:08;8.27;;;2.55;;
2061;SDS011;11070;51.336;12.340;2023-11-19T14:00:34;7.30;;;2.88;;
2061;SDS011;11070;51.336;12.340;2023-11-19T14:03:00;9.70;;;2.80;;
2061;SDS011;11070;51.336;12.340;2023-11-19T14:05:25;8.37;;;3.10;;
2061;SDS011;11070;51.336;12.340;2023-11-19T14:07:51;9.90;;;3.33;;
2061;SDS011;11070;51.336;12.340;2023-11-19T14:10:18;8.40;;;2.72;;
2061;SDS011;11070;51.336;12.340;2023-11-19T14:12:44;8.67;;;3.83;;
2061;SDS011;11070;51.336;12.340;2023-11-19T14:15:10;7.57;;;3.20;;
2061;SDS011;11070;51.336;12.340;2023-11-19T14:17:40;9.07;;;3.08;;
2061;SDS011;11070;51.336;12.340;2023-11-19T14:20:06;8.52;;;3.10;;
2061;SDS011;11070;51.336;12.340;2023-11-19T14:22:41;8.27;;;3.42;;
2061;SDS011;11070;51.336;12.340;2023-11-19T14:25:08;12.05;;;3.45;;
2061;SDS011;11070;51.336;12.340;2023-11-19T14:27:38;8.57;;;3.25;;
2061;SDS011;11070;51.336;12.340;2023-11-19T14:30:06;8.45;;;3.58;;
2061;SDS011;11070;51.336;12.340;2023-11-19T14:32:36;11.55;;;3.88;;
2061;SDS011;11070;51.336;12.340;2023-11-19T14:35:02;7.68;;;3.15;;
2061;SDS011;11070;51.336;12.340;2023-11-19T14:37:29;8.57;;;3.03;;
2061;SDS011;11070;51.336;12.340;2023-11-19T14:39:57;7.85;;;3.03;;
2061;SDS011;11070;51.336;12.340;2023-11-19T14:42:24;8.10;;;3.10;;
2061;SDS011;11070;51.336;12.340;2023-11-19T14:44:53;8.20;;;3.65;;
2061;SDS011;11070;51.336;12.340;2023-11-19T14:47:19;9.57;;;3.97;;
2061;SDS011;11070;51.336;12.340;2023-11-19T14:49:45;10.05;;;3.30;;
2061;SDS011;11070;51.336;12.340;2023-11-19T14:52:11;9.93;;;3.50;;
2061;SDS011;11070;51.336;12.340;2023-11-19T14:54:37;12.20;;;3.70;;
2061;SDS011;11070;51.336;12.340;2023-11-19T14:57:03;8.43;;;3.45;;
2061;SDS011;11070;51.336;12.340;2023-11-19T14:59:30;9.38;;;3.63;;
2061;SDS011;11070;51.336;12.340;2023-11-19T15:01:56;8.52;;;2.90;;
2061;SDS011;11070;51.336;12.340;2023-11-19T15:04:22;9.20;;;3.30;;
2061;SDS011;11070;51.336;12.340;2023-11-19T15:06:48;8.53;;;3.60;;
2061;SDS011;11070;51.336;12.340;2023-11-19T15:09:13;8.63;;;3.80;;
2061;SDS011;11070;51.336;12.340;2023-11-19T15:11:42;7.05;;;3.03;;
2061;SDS011;11070;51.336;12.340;2023-11-19T15:14:11;7.35;;;3.25;;
2061;SDS011;11070;51.336;12.340;2023-11-19T15:16:40;10.25;;;3.85;;
2061;SDS011;11070;51.336;12.340;2023-11-19T15:19:06;7.35;;;3.65;;
2061;SDS011;11070;51.336;12.340;2023-11-19T15:21:33;6.85;;;3.47;;
2061;SDS011;11070;51.336;12.340;2023-11-19T15:23:59;11.25;;;4.22;;
2061;SDS011;11070;51.336;12.340;2023-11-19T15:26:26;14.68;;;4.50;;